sensor_id;sensor_type;location;lat;lon;timestamp;temperature;humidity
54960;DHT22;40860;51.710;8.736;2022-10-16T00:02:08;14.20;99.60
54960;DHT22;40860;51.710;8.736;2022-10-16T00:06:11;14.10;99.50
54960;DHT22;40860;51.710;8.736;2022-10-16T00:10:14;14.10;99.60
54960;DHT22;40860;51.710;8.736;2022-10-16T00:14:17;14.10;99.60
54960;DHT22;40860;51.710;8.736;2022-10-16T00:18:21;14.10;99.70
54960;DHT22;40860;51.710;8.736;2022-10-16T00:22:24;14.10;99.70
54960;DHT22;40860;51.710;8.736;2022-10-16T00:26:29;14.10;99.70
54960;DHT22;40860;51.710;8.736;2022-10-16T00:30:32;14.20;99.70
54960;DHT22;40860;51.710;8.736;2022-10-16T00:34:37;14.10;99.60
54960;DHT22;40860;51.710;8.736;2022-10-16T00:38:40;14.10;99.70
54960;DHT22;40860;51.710;8.736;2022-10-16T00:42:43;14.10;99.70
54960;DHT22;40860;51.710;8.736;2022-10-16T00:46:46;14.10;99.70
54960;DHT22;40860;51.710;8.736;2022-10-16T00:50:50;14.20;99.90
54960;DHT22;40860;51.710;8.736;2022-10-16T00:54:54;14.10;99.80
54960;DHT22;40860;51.710;8.736;2022-10-16T00:58:58;14.20;99.80
54960;DHT22;40860;51.710;8.736;2022-10-16T01:03:02;14.20;99.70
54960;DHT22;40860;51.710;8.736;2022-10-16T01:07:14;14.20;99.80
54960;DHT22;40860;51.710;8.736;2022-10-16T01:11:22;14.20;99.80
54960;DHT22;40860;51.710;8.736;2022-10-16T01:15:28;14.20;99.80
54960;DHT22;40860;51.710;8.736;2022-10-16T01:19:44;14.20;99.70
54960;DHT22;40860;51.710;8.736;2022-10-16T01:23:59;14.20;99.70
54960;DHT22;40860;51.710;8.736;2022-10-16T01:28:05;14.20;99.80
54960;DHT22;40860;51.710;8.736;2022-10-16T01:32:15;14.10;99.70
54960;DHT22;40860;51.710;8.736;2022-10-16T01:36:25;14.10;99.80
54960;DHT22;40860;51.710;8.736;2022-10-16T01:40:31;14.10;99.80
54960;DHT22;40860;51.710;8.736;2022-10-16T01:44:37;14.10;99.80
54960;DHT22;40860;51.710;8.736;2022-10-16T01:48:41;14.10;99.80
54960;DHT22;40860;51.710;8.736;2022-10-16T01:52:46;14.10;99.70
54960;DHT22;40860;51.710;8.736;2022-10-16T01:56:49;14.10;99.70
54960;DHT22;40860;51.710;8.736;2022-10-16T02:00:54;14.10;99.70
54960;DHT22;40860;51.710;8.736;2022-10-16T02:05:02;14.10;99.60
54960;DHT22;40860;51.710;8.736;2022-10-16T02:09:07;14.20;99.60
54960;DHT22;40860;51.710;8.736;2022-10-16T02:13:13;14.20;99.40
54960;DHT22;40860;51.710;8.736;2022-10-16T02:17:18;14.20;99.40
54960;DHT22;40860;51.710;8.736;2022-10-16T02:21:25;14.20;99.30
54960;DHT22;40860;51.710;8.736;2022-10-16T02:25:31;14.20;99.30
54960;DHT22;40860;51.710;8.736;2022-10-16T02:29:38;14.20;99.20
54960;DHT22;40860;51.710;8.736;2022-10-16T02:33:44;14.20;99.20
54960;DHT22;40860;51.710;8.736;2022-10-16T02:37:49;14.20;99.10
54960;DHT22;40860;51.710;8.736;2022-10-16T02:41:52;14.20;99.00
54960;DHT22;40860;51.710;8.736;2022-10-16T02:45:55;14.20;99.00
54960;DHT22;40860;51.710;8.736;2022-10-16T02:49:59;14.30;99.00
54960;DHT22;40860;51.710;8.736;2022-10-16T02:54:02;14.30;98.80
54960;DHT22;40860;51.710;8.736;2022-10-16T02:58:05;14.30;98.70
54960;DHT22;40860;51.710;8.736;2022-10-16T03:02:08;14.30;98.60
54960;DHT22;40860;51.710;8.736;2022-10-16T03:06:13;14.30;98.60
54960;DHT22;40860;51.710;8.736;2022-10-16T03:10:15;14.30;98.60
54960;DHT22;40860;51.710;8.736;2022-10-16T03:14:18;14.20;98.60
54960;DHT22;40860;51.710;8.736;2022-10-16T03:18:21;14.20;98.50
54960;DHT22;40860;51.710;8.736;2022-10-16T03:22:25;14.20;98.40
54960;DHT22;40860;51.710;8.736;2022-10-16T03:26:28;14.20;98.40
54960;DHT22;40860;51.710;8.736;2022-10-16T03:30:31;14.20;98.40
54960;DHT22;40860;51.710;8.736;2022-10-16T03:34:34;14.10;98.40
54960;DHT22;40860;51.710;8.736;2022-10-16T03:38:38;14.10;98.50
54960;DHT22;40860;51.710;8.736;2022-10-16T03:42:42;14.10;98.50
54960;DHT22;40860;51.710;8.736;2022-10-16T03:46:45;14.10;98.50
54960;DHT22;40860;51.710;8.736;2022-10-16T03:50:48;14.10;98.60
54960;DHT22;40860;51.710;8.736;2022-10-16T03:54:53;14.10;98.60
54960;DHT22;40860;51.710;8.736;2022-10-16T03:58:56;14.00;98.60
54960;DHT22;40860;51.710;8.736;2022-10-16T04:02:59;14.00;98.60
54960;DHT22;40860;51.710;8.736;2022-10-16T04:07:02;14.00;98.60
54960;DHT22;40860;51.710;8.736;2022-10-16T04:11:06;14.00;98.70
54960;DHT22;40860;51.710;8.736;2022-10-16T04:15:09;14.00;98.70
54960;DHT22;40860;51.710;8.736;2022-10-16T04:19:12;14.10;98.70
54960;DHT22;40860;51.710;8.736;2022-10-16T04:23:15;14.00;98.60
54960;DHT22;40860;51.710;8.736;2022-10-16T04:27:19;14.10;98.60
54960;DHT22;40860;51.710;8.736;2022-10-16T04:31:22;14.10;98.50
54960;DHT22;40860;51.710;8.736;2022-10-16T04:35:25;14.10;98.40
54960;DHT22;40860;51.710;8.736;2022-10-16T04:39:28;14.10;98.30
54960;DHT22;40860;51.710;8.736;2022-10-16T04:43:32;14.10;98.30
54960;DHT22;40860;51.710;8.736;2022-10-16T04:47:35;14.10;98.20
54960;DHT22;40860;51.710;8.736;2022-10-16T04:51:38;14.20;98.20
54960;DHT22;40860;51.710;8.736;2022-10-16T04:55:41;14.10;98.20
54960;DHT22;40860;51.710;8.736;2022-10-16T04:59:46;14.10;98.20
54960;DHT22;40860;51.710;8.736;2022-10-16T05:03:49;14.10;98.20
54960;DHT22;40860;51.710;8.736;2022-10-16T05:07:52;14.20;98.20
54960;DHT22;40860;51.710;8.736;2022-10-16T05:11:55;14.20;98.20
54960;DHT22;40860;51.710;8.736;2022-10-16T05:15:59;14.20;98.20
54960;DHT22;40860;51.710;8.736;2022-10-16T05:20:03;14.20;98.20
54960;DHT22;40860;51.710;8.736;2022-10-16T05:24:06;14.20;98.10
54960;DHT22;40860;51.710;8.736;2022-10-16T05:28:08;14.20;97.90
54960;DHT22;40860;51.710;8.736;2022-10-16T05:32:13;14.20;97.90
54960;DHT22;40860;51.710;8.736;2022-10-16T05:36:16;14.10;98.10
54960;DHT22;40860;51.710;8.736;2022-10-16T05:40:19;14.20;97.60
54960;DHT22;40860;51.710;8.736;2022-10-16T05:44:23;14.30;97.50
54960;DHT22;40860;51.710;8.736;2022-10-16T05:48:27;14.30;97.30
54960;DHT22;40860;51.710;8.736;2022-10-16T05:52:30;14.20;97.10
54960;DHT22;40860;51.710;8.736;2022-10-16T05:56:34;14.20;96.90
54960;DHT22;40860;51.710;8.736;2022-10-16T06:00:36;14.20;97.00
54960;DHT22;40860;51.710;8.736;2022-10-16T06:04:41;14.20;96.90
54960;DHT22;40860;51.710;8.736;2022-10-16T06:08:45;14.30;96.80
54960;DHT22;40860;51.710;8.736;2022-10-16T06:12:48;14.20;96.80
54960;DHT22;40860;51.710;8.736;2022-10-16T06:16:51;14.30;96.70
54960;DHT22;40860;51.710;8.736;2022-10-16T06:20:57;14.30;96.60
54960;DHT22;40860;51.710;8.736;2022-10-16T06:25:00;14.30;96.60
54960;DHT22;40860;51.710;8.736;2022-10-16T06:29:03;14.30;96.50
54960;DHT22;40860;51.710;8.736;2022-10-16T06:33:06;14.40;96.40
54960;DHT22;40860;51.710;8.736;2022-10-16T06:37:10;14.40;96.40
54960;DHT22;40860;51.710;8.736;2022-10-16T06:41:15;14.40;96.40
54960;DHT22;40860;51.710;8.736;2022-10-16T06:45:18;14.50;96.30
54960;DHT22;40860;51.710;8.736;2022-10-16T06:49:21;14.50;96.30
54960;DHT22;40860;51.710;8.736;2022-10-16T06:53:27;14.60;96.30
54960;DHT22;40860;51.710;8.736;2022-10-16T06:57:36;14.60;96.20
54960;DHT22;40860;51.710;8.736;2022-10-16T07:01:39;14.70;96.10
54960;DHT22;40860;51.710;8.736;2022-10-16T07:05:42;14.70;96.00
54960;DHT22;40860;51.710;8.736;2022-10-16T07:09:46;14.70;96.10
54960;DHT22;40860;51.710;8.736;2022-10-16T07:13:50;14.80;96.10
54960;DHT22;40860;51.710;8.736;2022-10-16T07:17:56;14.80;96.10
54960;DHT22;40860;51.710;8.736;2022-10-16T07:21:59;14.90;96.20
54960;DHT22;40860;51.710;8.736;2022-10-16T07:26:04;15.00;96.00
54960;DHT22;40860;51.710;8.736;2022-10-16T07:30:08;15.10;96.10
54960;DHT22;40860;51.710;8.736;2022-10-16T07:34:12;15.10;96.00
54960;DHT22;40860;51.710;8.736;2022-10-16T07:38:15;15.10;96.30
54960;DHT22;40860;51.710;8.736;2022-10-16T07:42:20;15.20;96.10
54960;DHT22;40860;51.710;8.736;2022-10-16T07:46:23;15.50;96.10
54960;DHT22;40860;51.710;8.736;2022-10-16T07:50:26;15.60;95.50
54960;DHT22;40860;51.710;8.736;2022-10-16T07:54:28;15.80;95.60
54960;DHT22;40860;51.710;8.736;2022-10-16T07:58:33;15.90;95.50
54960;DHT22;40860;51.710;8.736;2022-10-16T08:02:38;16.10;95.20
54960;DHT22;40860;51.710;8.736;2022-10-16T08:06:42;16.20;95.10
54960;DHT22;40860;51.710;8.736;2022-10-16T08:10:45;16.30;95.00
54960;DHT22;40860;51.710;8.736;2022-10-16T08:14:49;16.60;94.70
54960;DHT22;40860;51.710;8.736;2022-10-16T08:18:52;16.80;94.40
54960;DHT22;40860;51.710;8.736;2022-10-16T08:22:55;17.00;93.90
54960;DHT22;40860;51.710;8.736;2022-10-16T08:26:58;17.20;93.50
54960;DHT22;40860;51.710;8.736;2022-10-16T08:31:07;17.20;93.20
54960;DHT22;40860;51.710;8.736;2022-10-16T08:35:11;17.20;93.10
54960;DHT22;40860;51.710;8.736;2022-10-16T08:39:16;17.30;93.10
54960;DHT22;40860;51.710;8.736;2022-10-16T08:43:28;17.40;93.00
54960;DHT22;40860;51.710;8.736;2022-10-16T08:47:44;17.40;92.70
54960;DHT22;40860;51.710;8.736;2022-10-16T08:51:48;17.40;92.00
54960;DHT22;40860;51.710;8.736;2022-10-16T08:55:53;17.50;92.30
54960;DHT22;40860;51.710;8.736;2022-10-16T08:59:59;17.60;92.00
54960;DHT22;40860;51.710;8.736;2022-10-16T09:08:57;17.80;91.50
54960;DHT22;40860;51.710;8.736;2022-10-16T09:13:14;18.10;90.90
54960;DHT22;40860;51.710;8.736;2022-10-16T09:17:30;18.40;90.50
54960;DHT22;40860;51.710;8.736;2022-10-16T09:21:36;18.20;90.30
54960;DHT22;40860;51.710;8.736;2022-10-16T09:25:44;18.00;89.20
54960;DHT22;40860;51.710;8.736;2022-10-16T09:29:49;17.90;89.30
54960;DHT22;40860;51.710;8.736;2022-10-16T09:33:58;18.20;89.30
54960;DHT22;40860;51.710;8.736;2022-10-16T09:38:02;18.40;88.20
54960;DHT22;40860;51.710;8.736;2022-10-16T09:42:06;18.20;85.60
54960;DHT22;40860;51.710;8.736;2022-10-16T09:46:22;18.00;86.20
54960;DHT22;40860;51.710;8.736;2022-10-16T09:50:26;17.80;86.20
54960;DHT22;40860;51.710;8.736;2022-10-16T09:54:29;18.00;84.70
54960;DHT22;40860;51.710;8.736;2022-10-16T09:58:33;18.00;85.60
54960;DHT22;40860;51.710;8.736;2022-10-16T10:02:37;18.10;85.10
54960;DHT22;40860;51.710;8.736;2022-10-16T10:06:43;18.30;85.50
54960;DHT22;40860;51.710;8.736;2022-10-16T10:10:48;18.60;80.80
54960;DHT22;40860;51.710;8.736;2022-10-16T10:14:54;18.70;80.40
54960;DHT22;40860;51.710;8.736;2022-10-16T10:18:58;18.70;79.70
54960;DHT22;40860;51.710;8.736;2022-10-16T10:23:15;18.50;79.50
54960;DHT22;40860;51.710;8.736;2022-10-16T10:27:26;18.20;78.40
54960;DHT22;40860;51.710;8.736;2022-10-16T10:31:37;18.20;78.90
54960;DHT22;40860;51.710;8.736;2022-10-16T10:35:47;18.40;77.70
54960;DHT22;40860;51.710;8.736;2022-10-16T10:39:58;18.80;78.00
54960;DHT22;40860;51.710;8.736;2022-10-16T10:44:12;18.90;77.70
54960;DHT22;40860;51.710;8.736;2022-10-16T10:48:32;18.90;75.80
54960;DHT22;40860;51.710;8.736;2022-10-16T10:52:53;18.90;75.20
54960;DHT22;40860;51.710;8.736;2022-10-16T10:57:05;18.90;75.90
54960;DHT22;40860;51.710;8.736;2022-10-16T11:01:11;19.00;74.60
54960;DHT22;40860;51.710;8.736;2022-10-16T11:05:27;19.20;73.90
54960;DHT22;40860;51.710;8.736;2022-10-16T11:09:36;19.20;72.00
54960;DHT22;40860;51.710;8.736;2022-10-16T11:13:46;19.30;72.80
54960;DHT22;40860;51.710;8.736;2022-10-16T11:18:00;19.30;73.00
54960;DHT22;40860;51.710;8.736;2022-10-16T11:22:12;19.40;72.50
54960;DHT22;40860;51.710;8.736;2022-10-16T11:26:20;19.50;72.80
54960;DHT22;40860;51.710;8.736;2022-10-16T11:30:26;19.50;73.60
54960;DHT22;40860;51.710;8.736;2022-10-16T11:34:33;19.70;74.90
54960;DHT22;40860;51.710;8.736;2022-10-16T11:38:45;19.90;73.00
54960;DHT22;40860;51.710;8.736;2022-10-16T11:42:55;20.00;71.30
54960;DHT22;40860;51.710;8.736;2022-10-16T11:47:09;20.10;71.30
54960;DHT22;40860;51.710;8.736;2022-10-16T11:51:38;20.20;69.90
54960;DHT22;40860;51.710;8.736;2022-10-16T11:55:45;20.10;69.20
54960;DHT22;40860;51.710;8.736;2022-10-16T11:59:51;20.20;70.10
54960;DHT22;40860;51.710;8.736;2022-10-16T12:04:06;20.20;69.00
54960;DHT22;40860;51.710;8.736;2022-10-16T12:08:16;20.10;69.10
54960;DHT22;40860;51.710;8.736;2022-10-16T12:12:26;20.20;69.40
54960;DHT22;40860;51.710;8.736;2022-10-16T12:16:37;20.20;69.10
54960;DHT22;40860;51.710;8.736;2022-10-16T12:20:40;20.10;68.10
54960;DHT22;40860;51.710;8.736;2022-10-16T12:24:51;20.00;69.30
54960;DHT22;40860;51.710;8.736;2022-10-16T12:28:57;20.00;68.70
54960;DHT22;40860;51.710;8.736;2022-10-16T12:33:21;20.00;69.40
54960;DHT22;40860;51.710;8.736;2022-10-16T12:37:26;20.00;69.90
54960;DHT22;40860;51.710;8.736;2022-10-16T12:41:31;20.00;70.10
54960;DHT22;40860;51.710;8.736;2022-10-16T12:45:36;20.00;71.50
54960;DHT22;40860;51.710;8.736;2022-10-16T12:49:49;20.00;70.50
54960;DHT22;40860;51.710;8.736;2022-10-16T12:53:59;20.00;70.00
54960;DHT22;40860;51.710;8.736;2022-10-16T12:58:13;20.00;70.40
54960;DHT22;40860;51.710;8.736;2022-10-16T13:02:40;20.00;69.20
54960;DHT22;40860;51.710;8.736;2022-10-16T13:06:53;20.00;69.50
54960;DHT22;40860;51.710;8.736;2022-10-16T13:11:04;19.90;69.70
54960;DHT22;40860;51.710;8.736;2022-10-16T13:15:25;19.90;70.20
54960;DHT22;40860;51.710;8.736;2022-10-16T13:19:36;19.90;71.00
54960;DHT22;40860;51.710;8.736;2022-10-16T13:23:49;19.80;70.30
54960;DHT22;40860;51.710;8.736;2022-10-16T13:27:59;19.70;70.70
54960;DHT22;40860;51.710;8.736;2022-10-16T13:32:10;19.60;70.80
54960;DHT22;40860;51.710;8.736;2022-10-16T13:36:21;19.50;70.50
54960;DHT22;40860;51.710;8.736;2022-10-16T13:40:24;19.50;70.80
54960;DHT22;40860;51.710;8.736;2022-10-16T13:44:39;19.50;71.60
54960;DHT22;40860;51.710;8.736;2022-10-16T13:48:43;19.60;72.70
54960;DHT22;40860;51.710;8.736;2022-10-16T13:52:47;19.80;72.40
54960;DHT22;40860;51.710;8.736;2022-10-16T13:56:51;19.80;73.10
54960;DHT22;40860;51.710;8.736;2022-10-16T14:01:16;19.70;73.00
54960;DHT22;40860;51.710;8.736;2022-10-16T14:05:20;19.60;75.00
54960;DHT22;40860;51.710;8.736;2022-10-16T14:09:26;19.60;74.20
54960;DHT22;40860;51.710;8.736;2022-10-16T14:13:33;19.70;74.40
54960;DHT22;40860;51.710;8.736;2022-10-16T14:17:37;19.70;72.70
54960;DHT22;40860;51.710;8.736;2022-10-16T14:21:46;19.90;72.50
54960;DHT22;40860;51.710;8.736;2022-10-16T14:25:50;19.90;72.70
54960;DHT22;40860;51.710;8.736;2022-10-16T14:30:14;19.90;72.20
54960;DHT22;40860;51.710;8.736;2022-10-16T14:34:30;19.80;72.30
54960;DHT22;40860;51.710;8.736;2022-10-16T14:38:34;19.80;72.20
54960;DHT22;40860;51.710;8.736;2022-10-16T14:42:43;19.70;71.20
54960;DHT22;40860;51.710;8.736;2022-10-16T14:46:46;19.50;72.40
54960;DHT22;40860;51.710;8.736;2022-10-16T14:50:49;19.50;72.70
54960;DHT22;40860;51.710;8.736;2022-10-16T14:54:52;19.50;73.20
54960;DHT22;40860;51.710;8.736;2022-10-16T14:58:57;19.40;73.70
54960;DHT22;40860;51.710;8.736;2022-10-16T15:03:00;19.30;75.10
54960;DHT22;40860;51.710;8.736;2022-10-16T15:07:03;19.10;75.20
54960;DHT22;40860;51.710;8.736;2022-10-16T15:11:09;18.80;77.10
54960;DHT22;40860;51.710;8.736;2022-10-16T15:15:26;18.60;76.90
54960;DHT22;40860;51.710;8.736;2022-10-16T15:19:30;18.40;78.50
54960;DHT22;40860;51.710;8.736;2022-10-16T15:23:33;18.30;80.40
54960;DHT22;40860;51.710;8.736;2022-10-16T15:27:36;18.30;83.10
54960;DHT22;40860;51.710;8.736;2022-10-16T15:31:43;18.20;83.60
54960;DHT22;40860;51.710;8.736;2022-10-16T15:35:49;18.20;83.50
54960;DHT22;40860;51.710;8.736;2022-10-16T15:39:53;18.30;83.40
54960;DHT22;40860;51.710;8.736;2022-10-16T15:43:56;18.30;83.70
54960;DHT22;40860;51.710;8.736;2022-10-16T15:48:01;18.20;84.60
54960;DHT22;40860;51.710;8.736;2022-10-16T15:52:05;18.00;84.80
54960;DHT22;40860;51.710;8.736;2022-10-16T15:56:10;17.90;85.30
54960;DHT22;40860;51.710;8.736;2022-10-16T16:00:15;17.80;86.80
54960;DHT22;40860;51.710;8.736;2022-10-16T16:04:20;17.60;87.60
54960;DHT22;40860;51.710;8.736;2022-10-16T16:08:43;17.50;87.80
54960;DHT22;40860;51.710;8.736;2022-10-16T16:12:46;17.40;87.40
54960;DHT22;40860;51.710;8.736;2022-10-16T16:16:53;17.30;88.90
54960;DHT22;40860;51.710;8.736;2022-10-16T16:20:57;17.10;89.30
54960;DHT22;40860;51.710;8.736;2022-10-16T16:25:00;17.00;90.00
54960;DHT22;40860;51.710;8.736;2022-10-16T16:29:04;16.80;90.50
54960;DHT22;40860;51.710;8.736;2022-10-16T16:33:07;16.80;90.60
54960;DHT22;40860;51.710;8.736;2022-10-16T16:37:11;16.60;90.70
54960;DHT22;40860;51.710;8.736;2022-10-16T16:41:14;16.60;91.20
54960;DHT22;40860;51.710;8.736;2022-10-16T16:45:18;16.50;91.30
54960;DHT22;40860;51.710;8.736;2022-10-16T16:49:21;16.40;91.40
54960;DHT22;40860;51.710;8.736;2022-10-16T16:53:25;16.40;91.50
54960;DHT22;40860;51.710;8.736;2022-10-16T16:57:28;16.40;91.80
54960;DHT22;40860;51.710;8.736;2022-10-16T17:01:31;16.30;91.90
54960;DHT22;40860;51.710;8.736;2022-10-16T17:05:34;16.30;92.00
54960;DHT22;40860;51.710;8.736;2022-10-16T17:09:38;16.20;92.20
54960;DHT22;40860;51.710;8.736;2022-10-16T17:13:41;16.30;92.30
54960;DHT22;40860;51.710;8.736;2022-10-16T17:17:44;16.30;92.10
54960;DHT22;40860;51.710;8.736;2022-10-16T17:21:48;16.30;91.80
54960;DHT22;40860;51.710;8.736;2022-10-16T17:25:53;16.40;91.90
54960;DHT22;40860;51.710;8.736;2022-10-16T17:29:56;16.30;92.40
54960;DHT22;40860;51.710;8.736;2022-10-16T17:34:00;16.20;93.50
54960;DHT22;40860;51.710;8.736;2022-10-16T17:38:03;16.10;93.60
54960;DHT22;40860;51.710;8.736;2022-10-16T17:42:07;16.10;93.40
54960;DHT22;40860;51.710;8.736;2022-10-16T17:46:11;16.00;93.70
54960;DHT22;40860;51.710;8.736;2022-10-16T17:50:15;16.00;94.50
54960;DHT22;40860;51.710;8.736;2022-10-16T17:54:18;15.90;94.30
54960;DHT22;40860;51.710;8.736;2022-10-16T17:58:22;16.00;94.20
54960;DHT22;40860;51.710;8.736;2022-10-16T18:02:25;15.90;93.90
54960;DHT22;40860;51.710;8.736;2022-10-16T18:06:30;15.90;93.50
54960;DHT22;40860;51.710;8.736;2022-10-16T18:10:33;16.00;93.50
54960;DHT22;40860;51.710;8.736;2022-10-16T18:14:37;16.00;93.30
54960;DHT22;40860;51.710;8.736;2022-10-16T18:18:42;16.00;93.30
54960;DHT22;40860;51.710;8.736;2022-10-16T18:22:46;15.90;93.60
54960;DHT22;40860;51.710;8.736;2022-10-16T18:26:49;15.90;94.10
54960;DHT22;40860;51.710;8.736;2022-10-16T18:30:56;15.80;95.00
54960;DHT22;40860;51.710;8.736;2022-10-16T18:34:59;15.70;95.10
54960;DHT22;40860;51.710;8.736;2022-10-16T18:39:04;15.70;95.40
54960;DHT22;40860;51.710;8.736;2022-10-16T18:43:10;15.60;96.00
54960;DHT22;40860;51.710;8.736;2022-10-16T18:47:14;15.50;96.10
54960;DHT22;40860;51.710;8.736;2022-10-16T18:51:22;15.50;96.10
54960;DHT22;40860;51.710;8.736;2022-10-16T18:55:25;15.50;96.00
54960;DHT22;40860;51.710;8.736;2022-10-16T18:59:31;15.60;96.10
54960;DHT22;40860;51.710;8.736;2022-10-16T19:03:36;15.60;96.00
54960;DHT22;40860;51.710;8.736;2022-10-16T19:07:39;15.60;96.10
54960;DHT22;40860;51.710;8.736;2022-10-16T19:11:44;15.60;96.20
54960;DHT22;40860;51.710;8.736;2022-10-16T19:15:47;15.60;96.20
54960;DHT22;40860;51.710;8.736;2022-10-16T19:20:00;15.60;96.20
54960;DHT22;40860;51.710;8.736;2022-10-16T19:24:03;15.60;96.80
54960;DHT22;40860;51.710;8.736;2022-10-16T19:28:06;15.60;96.90
54960;DHT22;40860;51.710;8.736;2022-10-16T19:32:09;15.60;96.80
54960;DHT22;40860;51.710;8.736;2022-10-16T19:36:15;15.70;96.90
54960;DHT22;40860;51.710;8.736;2022-10-16T19:40:18;15.80;96.80
54960;DHT22;40860;51.710;8.736;2022-10-16T19:44:21;15.80;96.80
54960;DHT22;40860;51.710;8.736;2022-10-16T19:48:24;15.90;97.00
54960;DHT22;40860;51.710;8.736;2022-10-16T19:52:28;16.00;97.10
54960;DHT22;40860;51.710;8.736;2022-10-16T19:56:32;16.10;97.20
54960;DHT22;40860;51.710;8.736;2022-10-16T20:00:39;16.20;97.30
54960;DHT22;40860;51.710;8.736;2022-10-16T20:04:43;16.30;97.40
54960;DHT22;40860;51.710;8.736;2022-10-16T20:08:49;16.40;97.50
54960;DHT22;40860;51.710;8.736;2022-10-16T20:12:52;16.40;97.70
54960;DHT22;40860;51.710;8.736;2022-10-16T20:16:55;16.40;97.70
54960;DHT22;40860;51.710;8.736;2022-10-16T20:20:58;16.40;98.00
54960;DHT22;40860;51.710;8.736;2022-10-16T20:25:03;16.50;98.00
54960;DHT22;40860;51.710;8.736;2022-10-16T20:29:10;16.50;97.80
54960;DHT22;40860;51.710;8.736;2022-10-16T20:33:14;16.50;98.00
54960;DHT22;40860;51.710;8.736;2022-10-16T20:37:17;16.60;98.20
54960;DHT22;40860;51.710;8.736;2022-10-16T20:41:22;16.60;98.10
54960;DHT22;40860;51.710;8.736;2022-10-16T20:45:25;16.40;98.50
54960;DHT22;40860;51.710;8.736;2022-10-16T20:49:28;16.30;98.90
54960;DHT22;40860;51.710;8.736;2022-10-16T20:53:41;16.20;99.30
54960;DHT22;40860;51.710;8.736;2022-10-16T20:57:46;16.20;99.60
54960;DHT22;40860;51.710;8.736;2022-10-16T21:01:48;16.10;99.90
54960;DHT22;40860;51.710;8.736;2022-10-16T21:05:52;16.00;99.90
54960;DHT22;40860;51.710;8.736;2022-10-16T21:10:00;16.00;99.90
54960;DHT22;40860;51.710;8.736;2022-10-16T21:14:06;16.00;99.90
54960;DHT22;40860;51.710;8.736;2022-10-16T21:18:09;16.00;99.90
54960;DHT22;40860;51.710;8.736;2022-10-16T21:22:13;16.00;99.90
54960;DHT22;40860;51.710;8.736;2022-10-16T21:26:16;16.00;99.90
54960;DHT22;40860;51.710;8.736;2022-10-16T21:30:22;16.00;99.90
54960;DHT22;40860;51.710;8.736;2022-10-16T21:34:26;16.00;99.90
54960;DHT22;40860;51.710;8.736;2022-10-16T21:38:28;16.10;99.90
54960;DHT22;40860;51.710;8.736;2022-10-16T21:42:31;16.10;99.90
54960;DHT22;40860;51.710;8.736;2022-10-16T21:46:37;16.10;99.90
54960;DHT22;40860;51.710;8.736;2022-10-16T21:50:46;16.00;99.90
54960;DHT22;40860;51.710;8.736;2022-10-16T21:54:49;15.90;99.90
54960;DHT22;40860;51.710;8.736;2022-10-16T21:58:52;15.90;99.90
54960;DHT22;40860;51.710;8.736;2022-10-16T22:02:57;15.90;99.90
54960;DHT22;40860;51.710;8.736;2022-10-16T22:07:00;15.80;99.90
54960;DHT22;40860;51.710;8.736;2022-10-16T22:11:05;15.70;99.90
54960;DHT22;40860;51.710;8.736;2022-10-16T22:15:09;15.60;99.90
54960;DHT22;40860;51.710;8.736;2022-10-16T22:19:15;15.50;99.90
54960;DHT22;40860;51.710;8.736;2022-10-16T22:23:20;15.40;99.90
54960;DHT22;40860;51.710;8.736;2022-10-16T22:27:22;15.40;99.90
54960;DHT22;40860;51.710;8.736;2022-10-16T22:31:26;15.40;99.90
54960;DHT22;40860;51.710;8.736;2022-10-16T22:35:30;15.40;99.90
54960;DHT22;40860;51.710;8.736;2022-10-16T22:39:37;15.30;99.90
54960;DHT22;40860;51.710;8.736;2022-10-16T22:43:41;15.30;99.90
54960;DHT22;40860;51.710;8.736;2022-10-16T22:47:44;15.30;99.90
54960;DHT22;40860;51.710;8.736;2022-10-16T22:51:49;15.30;99.90
54960;DHT22;40860;51.710;8.736;2022-10-16T22:55:56;15.40;99.90
54960;DHT22;40860;51.710;8.736;2022-10-16T22:59:59;15.30;99.90
54960;DHT22;40860;51.710;8.736;2022-10-16T23:04:02;15.30;99.90
54960;DHT22;40860;51.710;8.736;2022-10-16T23:08:06;15.30;99.90
54960;DHT22;40860;51.710;8.736;2022-10-16T23:12:09;15.30;99.90
54960;DHT22;40860;51.710;8.736;2022-10-16T23:16:14;15.30;99.90
54960;DHT22;40860;51.710;8.736;2022-10-16T23:20:17;15.30;99.90
54960;DHT22;40860;51.710;8.736;2022-10-16T23:24:21;15.30;99.90
54960;DHT22;40860;51.710;8.736;2022-10-16T23:28:24;15.30;99.90
54960;DHT22;40860;51.710;8.736;2022-10-16T23:32:27;15.20;99.90
54960;DHT22;40860;51.710;8.736;2022-10-16T23:36:30;15.20;99.90
54960;DHT22;40860;51.710;8.736;2022-10-16T23:40:34;15.20;99.90
54960;DHT22;40860;51.710;8.736;2022-10-16T23:44:37;15.10;99.90
54960;DHT22;40860;51.710;8.736;2022-10-16T23:48:40;15.10;99.90
54960;DHT22;40860;51.710;8.736;2022-10-16T23:52:43;15.10;99.90
54960;DHT22;40860;51.710;8.736;2022-10-16T23:56:47;15.00;99.90
